Tuesday, November 25, 2014
20:52 UTC
  |  Log In   |  Register Free
Airport Search:

Bishop International Airport
(KFNT)

FAA data valid effective November 13, 2014 - January 08, 2015 (unless otherwise noted).

 
 
 
 
 
 
 
 
 
 
 
 
 
 

Current Aviation Weather for Bishop International Airport (KFNT)

The most recent METAR observation for KFNT was updated at: 2017
METAR Summary (Translated METAR)
KFNT
252006Z 26011KT 10SM SCT023 OVC036 01/M04 A3002 RMK AO2 T00061044
KRNP
252013Z AUTO 25009G15KT 10SM SCT024 OVC031 00/M04 A3003 RMK AO2 T10011037
(17.4 nm NW from KFNT)
KD95
251953Z AUTO 26010KT 10SM SCT018 SCT026 OVC031 M01/M03 A3000 RMK AO2 T10081031
(21.6 nm NE from KFNT)
TAF Summary (Translated TAF)
KFNT
251737Z 2518/2618 24015G22KT P6SM -SHSN OVC025 FM252300 26010KT P6SM BKN035 FM260800 VRB03KT P6SM BKN020 OVC040 FM261400 07005KT P6SM OVC020
  Airport Weather Conditions for KFNT

 Current Weather at FNT
33° F
Overcast
West winds at 11.5 mph
FNT NOAA Radar

Pressure: 30.01 in
Humidity: 70%
Wind: from the West at 11.5 gusting to 23.0 MPH (10 gusting to 20 KT)
Dew Point: 24.1°F
Visibility: 10.00 mi


Airport Weather Forecast for KFNT

Translated METAR and TAF for KFNT
Translated METAR for KFNT (2047 UTC 25 November 2014)
found at http://aviationweather.gov/adds/metars/
 
METAR text: KFNT 252039Z 25010KT 10SM BKN026 BKN030 OVC041 01/M04 A3005 RMK AO2 T00061044
Conditions at: KFNT (FLINT , MI, US) observed 2039 UTC 25 November 2014
Temperature: 0.6°C (33°F)
Dewpoint: -4.4°C (24°F) [RH = 69%]
Pressure (altimeter): 30.05 inches Hg (1017.7 mb)
Winds: from the WSW (250 degrees) at 12 MPH (10 knots; 5.2 m/s)
Visibility: 10 or more miles (16+ km)
Ceiling: 2600 feet AGL
Clouds: broken clouds at 2600 feet AGL
broken clouds at 3000 feet AGL
overcast cloud deck at 4100 feet AGL
Weather: no significant weather observed at this time
Translated TAF for KFNT
Forecast for: KFNT (FLINT , MI, US)
TAF Text: KFNT 251737Z 2518/2618 24015G22KT P6SM -SHSN OVC025
Forecast period: 1800 to 2300 UTC 25 November 2014
Forecast type: FROM: standard forecast or significant change
Winds: from the WSW (240 degrees) at 17 MPH (15 knots; 7.8 m/s)
gusting to 25 MPH (22 knots; 11.4 m/s)
Visibility: 6 or more miles (10+ km)
Ceiling: 2500 feet AGL
Clouds: overcast cloud deck at 2500 feet AGL
Weather: -SHSN  (light snow showers)
TAF Text: FM252300 26010KT P6SM BKN035
Forecast period: 2300 UTC 25 November 2014 to 0800 UTC 26 November 2014
Forecast type: FROM: standard forecast or significant change
Winds: from the W (260 degrees) at 12 MPH (10 knots; 5.2 m/s)
Visibility: 6 or more miles (10+ km)
Ceiling: 3500 feet AGL
Clouds: broken clouds at 3500 feet AGL
Weather: no significant weather forecast for this period
TAF Text: FM260800 VRB03KT P6SM BKN020 OVC040
Forecast period: 0800 to 1400 UTC 26 November 2014
Forecast type: FROM: standard forecast or significant change
Winds: variable direction winds at 3 MPH (3 knots; 1.6 m/s)
Visibility: 6 or more miles (10+ km)
Ceiling: 2000 feet AGL
Clouds: broken clouds at 2000 feet AGL
overcast cloud deck at 4000 feet AGL
Weather: no significant weather forecast for this period
TAF Text: FM261400 07005KT P6SM OVC020
Forecast period: 1400 to 1800 UTC 26 November 2014
Forecast type: FROM: standard forecast or significant change
Winds: from the ENE (70 degrees) at 6 MPH (5 knots; 2.6 m/s)
Visibility: 6 or more miles (10+ km)
Ceiling: 2000 feet AGL
Clouds: overcast cloud deck at 2000 feet AGL
Weather: no significant weather forecast for this period

Find All Airport Services Find A Hotel Find A Rental Car Find A Golf Course Find A Restaurant $100 Hamburger



FBO's on the Field
FBO Company Facility Photos Services Transportation Aviation Fuel Prices: Prices include tax
Catering Weather Repair Courtesy Rental Type 100LL JetA JetA+ MOGAS 8087
 
Avflight Flint

This FBO has not yet been rated
FS:Avfuel
Last Updated: Nov-24
Login to update fuel prices
SS:
Contact Avflight FlintMore FBO Information
 
Add another FBO Facility Photos Catering Weather Repair Courtesy Rental Type 100LL JetA JetA+ MOGAS 8087
Services Transportation Aviation Fuel Prices: Prices include tax


model-print
model-print
model-print
model-print